Time;durP1;ratioP1;P1;durP2;ratioP2;P2;SDS_P1;SDS_P2;PMS_P1;PMS_P2;Temp;Humidity;BMP_temperature;BMP_pressure;BME280_temperature;BME280_humidity;BME280_pressure;Samples;Min_cycle;Max_cycle;Signal;HPM_P1;HPM_P2
2022/01/26 00:06:34;;;;;;;41.40;19.00;;;;;;;-3.51;100.00;101288.95;1746673;81;21594;-71
2022/01/26 00:09:03;;;;;;;44.13;19.77;;;;;;;-3.51;100.00;101284.34;1736912;82;21089;-70
2022/01/26 00:11:33;;;;;;;45.33;22.17;;;;;;;-3.66;100.00;101285.64;1740942;81;21019;-71
2022/01/26 00:14:04;;;;;;;44.67;21.03;;;;;;;-3.60;100.00;101284.96;1745020;80;21051;-70
2022/01/26 00:16:40;;;;;;;48.03;21.33;;;;;;;-3.65;100.00;101279.81;1751821;81;21044;-69
2022/01/26 00:19:06;;;;;;;46.53;21.20;;;;;;;-3.68;100.00;101278.45;1751201;81;21032;-70
2022/01/26 00:21:38;;;;;;;40.73;19.57;;;;;;;-3.66;100.00;101275.99;1752162;81;21044;-71
2022/01/26 00:29:33;;;;;;;44.67;20.47;;;;;;;-3.54;100.00;101274.21;1745287;81;21050;-71
2022/01/26 00:33:06;;;;;;;40.93;19.33;;;;;;;-3.60;100.00;101269.02;1751107;81;21044;-70
2022/01/26 00:43:05;;;;;;;41.40;19.23;;;;;;;-3.66;100.00;101249.58;1753117;81;21083;-70
2022/01/26 00:45:34;;;;;;;42.47;19.83;;;;;;;-3.67;100.00;101245.34;1737242;82;21033;-70
2022/01/26 00:47:57;;;;;;;39.60;19.43;;;;;;;-3.64;100.00;101243.76;1750010;81;21104;-70
2022/01/26 00:50:24;;;;;;;44.27;20.37;;;;;;;-3.59;100.00;101238.84;1747827;81;21057;-71
2022/01/26 00:52:54;;;;;;;41.63;19.23;;;;;;;-3.57;100.00;101245.17;1744506;82;21078;-70
2022/01/26 00:55:21;;;;;;;46.17;20.17;;;;;;;-3.60;100.00;101241.34;1750246;81;21130;-70
2022/01/26 00:57:49;;;;;;;41.27;18.57;;;;;;;-3.68;100.00;101238.20;1746725;80;21062;-70
2022/01/26 01:00:21;;;;;;;40.23;19.87;;;;;;;-3.65;100.00;101241.20;1746122;82;21059;-69
2022/01/26 01:02:50;;;;;;;43.30;19.80;;;;;;;-3.66;100.00;101234.06;1751873;81;21112;-70
2022/01/26 01:05:21;;;;;;;40.93;19.67;;;;;;;-3.63;100.00;101226.61;1749680;81;21048;-70
2022/01/26 01:07:52;;;;;;;41.43;19.13;;;;;;;-3.67;100.00;101230.24;1753349;81;21598;-70
2022/01/26 01:10:22;;;;;;;43.20;19.90;;;;;;;-3.66;100.00;101224.00;1739368;81;22474;-70
2022/01/26 01:12:50;;;;;;;45.57;20.47;;;;;;;-3.73;100.00;101223.41;1753886;81;21527;-71
2022/01/26 01:15:18;;;;;;;42.77;20.03;;;;;;;-3.63;100.00;101219.44;1742920;81;21617;-70
2022/01/26 01:17:50;;;;;;;37.53;19.00;;;;;;;-3.60;100.00;101217.43;1748721;81;21588;-70
2022/01/26 01:20:34;;;;;;;37.67;18.50;;;;;;;-3.66;100.00;101220.64;1744105;81;21047;-70
2022/01/26 01:30:32;;;;;;;52.20;22.57;;;;;;;-3.59;100.00;101207.80;1744226;80;21601;-70
2022/01/26 01:33:06;;;;;;;53.33;24.27;;;;;;;-3.59;100.00;101206.13;1751247;81;21531;-70
2022/01/26 01:35:24;;;;;;;55.90;24.63;;;;;;;-3.57;100.00;101201.13;1743088;81;21001;-70
2022/01/26 01:37:52;;;;;;;49.50;21.57;;;;;;;-3.53;100.00;101196.20;1753329;81;21516;-70
2022/01/26 01:40:19;;;;;;;40.20;19.70;;;;;;;-3.51;100.00;101203.39;1748613;81;21011;-70
2022/01/26 01:42:45;;;;;;;38.70;19.47;;;;;;;-3.57;100.00;101205.75;1760538;81;21111;-70
2022/01/26 01:45:12;;;;;;;44.17;20.43;;;;;;;-3.59;100.00;101198.58;1748430;82;21026;-70
2022/01/26 01:47:39;;;;;;;39.83;18.43;;;;;;;-3.55;100.00;101191.55;1745687;80;21053;-70
2022/01/26 01:50:11;;;;;;;42.17;19.40;;;;;;;-3.57;100.00;101197.36;1744599;81;21560;-70
2022/01/26 01:52:36;;;;;;;40.03;19.73;;;;;;;-3.57;100.00;101195.69;1737546;81;21553;-71
2022/01/26 01:55:05;;;;;;;37.37;17.63;;;;;;;-3.56;100.00;101183.98;1740467;81;21046;-70
2022/01/26 01:57:32;;;;;;;39.50;18.87;;;;;;;-3.64;100.00;101185.05;1738875;81;21071;-70
2022/01/26 01:59:59;;;;;;;43.53;20.13;;;;;;;-3.72;100.00;101190.29;1737670;80;21490;-70
2022/01/26 02:02:26;;;;;;;42.77;20.00;;;;;;;-3.64;100.00;101187.14;1754310;81;21012;-70
2022/01/26 02:04:53;;;;;;;42.80;20.80;;;;;;;-3.60;100.00;101187.23;1742680;81;21038;-70
2022/01/26 02:07:20;;;;;;;43.13;19.63;;;;;;;-3.70;100.00;101187.41;1737855;82;21136;-70
2022/01/26 02:09:47;;;;;;;43.07;20.10;;;;;;;-3.65;100.00;101185.84;1738020;81;21033;-70
2022/01/26 02:12:20;;;;;;;42.57;19.93;;;;;;;-3.63;100.00;101186.73;1747640;80;21008;-70
2022/01/26 02:14:52;;;;;;;39.03;18.70;;;;;;;-3.65;100.00;101186.72;1738023;81;21518;-70
2022/01/26 02:20:33;;;;;;;40.63;19.40;;;;;;;-3.68;100.00;101183.27;1743683;81;21037;-70
2022/01/26 02:55:38;;;;;;;34.20;15.57;;;;;;;-3.60;100.00;101180.53;1740669;81;21545;-70
2022/01/26 03:03:19;;;;;;;32.80;16.03;;;;;;;-3.64;100.00;101179.59;1748717;82;21075;-70
2022/01/26 03:05:51;;;;;;;33.63;15.67;;;;;;;-3.62;100.00;101181.74;1752207;80;21060;-70
2022/01/26 03:08:11;;;;;;;33.70;16.13;;;;;;;-3.64;100.00;101179.59;1744695;81;21048;-70
2022/01/26 03:13:11;;;;;;;32.40;16.00;;;;;;;-3.63;100.00;101178.80;1750017;81;21045;-71
2022/01/26 03:15:43;;;;;;;33.60;15.33;;;;;;;-3.61;100.00;101175.03;1754009;81;21557;-71
2022/01/26 03:20:36;;;;;;;39.37;17.97;;;;;;;-3.58;100.00;101165.06;1737764;81;21073;-70
2022/01/26 03:28:57;;;;;;;34.73;17.50;;;;;;;-3.69;100.00;101164.81;1745076;80;21000;-71
2022/01/26 03:32:43;;;;;;;38.90;18.10;;;;;;;-3.66;100.00;101158.99;1750944;80;21023;-71
2022/01/26 03:33:55;;;;;;;36.90;16.60;;;;;;;-3.66;100.00;101158.99;1729297;82;21012;-71
2022/01/26 03:36:20;;;;;;;32.23;16.40;;;;;;;-3.65;100.00;101161.55;1751032;80;21073;-71
2022/01/26 03:38:57;;;;;;;35.63;16.83;;;;;;;-3.62;100.00;101156.58;1738033;82;21077;-71
2022/01/26 03:41:33;;;;;;;36.63;17.43;;;;;;;-3.63;100.00;101164.96;1738179;81;21090;-71
2022/01/26 03:43:48;;;;;;;34.20;16.33;;;;;;;-3.64;100.00;101154.44;1747953;80;21029;-71
2022/01/26 03:46:15;;;;;;;36.13;16.70;;;;;;;-3.64;100.00;101153.17;1751536;81;21618;-71
2022/01/26 03:48:42;;;;;;;35.13;16.40;;;;;;;-3.60;100.00;101154.11;1743973;81;21045;-72
2022/01/26 03:51:09;;;;;;;32.50;16.07;;;;;;;-3.62;100.00;101148.19;1738523;81;21061;-71
2022/01/26 03:53:37;;;;;;;37.47;17.03;;;;;;;-3.66;100.00;101142.64;1752536;80;21048;-71
2022/01/26 03:56:04;;;;;;;34.60;16.77;;;;;;;-3.65;100.00;101150.23;1753421;81;21016;-72
2022/01/26 03:58:31;;;;;;;34.93;16.83;;;;;;;-3.65;100.00;101144.32;1742513;82;21616;-73
2022/01/26 04:00:58;;;;;;;34.73;16.97;;;;;;;-3.64;100.00;101144.37;1746707;81;21568;-71
2022/01/26 04:03:25;;;;;;;34.37;17.10;;;;;;;-3.70;100.00;101137.09;1747638;80;21079;-71
2022/01/26 04:05:52;;;;;;;33.40;16.27;;;;;;;-3.67;100.00;101136.77;1741101;81;21637;-72
2022/01/26 04:08:25;;;;;;;36.20;16.27;;;;;;;-3.68;100.00;101135.46;1738905;81;21042;-71
2022/01/26 04:11:09;;;;;;;39.33;17.60;;;;;;;-3.72;100.00;101132.42;1742974;81;21117;-71
2022/01/26 04:13:24;;;;;;;36.63;17.87;;;;;;;-3.67;100.00;101130.86;1744540;81;21153;-71
2022/01/26 04:15:51;;;;;;;34.70;16.60;;;;;;;-3.65;100.00;101133.00;1737879;81;21037;-72
2022/01/26 04:18:24;;;;;;;33.07;16.27;;;;;;;-3.63;100.00;101136.02;1738206;81;21026;-72
2022/01/26 04:20:50;;;;;;;29.10;15.67;;;;;;;-3.62;100.00;101135.61;1737149;81;21026;-72
2022/01/26 04:23:25;;;;;;;42.33;17.53;;;;;;;-3.62;100.00;101138.97;1737847;81;21065;-72
2022/01/26 04:25:47;;;;;;;34.10;16.07;;;;;;;-3.59;100.00;101139.44;1741107;81;21037;-72
2022/01/26 04:28:24;;;;;;;31.50;16.50;;;;;;;-3.57;100.00;101141.58;1738078;81;21602;-72
2022/01/26 04:30:44;;;;;;;32.80;15.80;;;;;;;-3.55;100.00;101136.18;1743006;80;21069;-72
2022/01/26 04:33:11;;;;;;;34.80;16.07;;;;;;;-3.62;100.00;101138.13;1758254;81;21489;-71
2022/01/26 04:35:43;;;;;;;30.97;16.20;;;;;;;-3.72;100.00;101138.72;1744895;81;21512;-72
2022/01/26 04:41:20;;;;;;;27.90;14.93;;;;;;;-3.63;100.00;101134.77;1745884;80;21007;-72
2022/01/26 04:43:34;;;;;;;27.77;13.78;;;;;;;-3.63;100.00;101129.73;1748558;81;21072;-72
2022/01/26 04:45:59;;;;;;;29.43;12.77;;;;;;;-3.68;100.00;101124.98;1684365;85;21955;-72
2022/01/26 04:48:26;;;;;;;31.03;14.37;;;;;;;-3.71;100.00;101129.08;1732530;82;21097;-72
2022/01/26 04:50:54;;;;;;;29.97;14.53;;;;;;;-3.73;100.00;101128.19;1710343;82;21031;-72
2022/01/26 04:53:21;;;;;;;29.13;14.37;;;;;;;-3.79;100.00;101130.56;1725061;82;21041;-72
2022/01/26 04:55:48;;;;;;;27.03;13.73;;;;;;;-3.82;100.00;101132.19;1699834;82;21512;-72
2022/01/26 04:58:16;;;;;;;31.80;13.30;;;;;;;-3.82;100.00;101133.45;1689716;82;21054;-73
2022/01/26 05:00:43;;;;;;;28.87;13.53;;;;;;;-3.84;100.00;101127.53;1692964;82;21030;-72
2022/01/26 05:03:11;;;;;;;27.83;13.17;;;;;;;-3.74;100.00;101126.51;1701195;83;21026;-72
2022/01/26 05:05:38;;;;;;;27.33;12.97;;;;;;;-3.76;100.00;101125.63;1709542;83;21586;-72
2022/01/26 05:08:05;;;;;;;24.30;12.33;;;;;;;-3.80;100.00;101122.59;1698508;82;21081;-72
2022/01/26 05:10:36;;;;;;;22.00;11.20;;;;;;;-3.93;100.00;101126.06;1719083;83;21044;-72
2022/01/26 05:13:03;;;;;;;27.07;12.70;;;;;;;-3.99;100.00;101128.80;1729447;82;21164;-73
2022/01/26 05:15:30;;;;;;;25.00;13.07;;;;;;;-3.90;100.00;101127.38;1704439;83;21050;-73
2022/01/26 05:17:58;;;;;;;28.37;13.17;;;;;;;-3.87;100.00;101123.69;1746632;80;21071;-72
2022/01/26 05:20:25;;;;;;;29.10;13.07;;;;;;;-3.81;100.00;101123.00;1745422;80;21074;-72
2022/01/26 05:22:52;;;;;;;24.57;12.27;;;;;;;-3.79;100.00;101127.66;1742363;81;21522;-73
2022/01/26 05:25:20;;;;;;;27.57;13.57;;;;;;;-3.82;100.00;101128.83;1737837;82;21013;-73
2022/01/26 05:27:47;;;;;;;26.50;13.47;;;;;;;-3.78;100.00;101131.02;1738083;81;21050;-73
2022/01/26 05:30:15;;;;;;;24.03;11.43;;;;;;;-3.80;100.00;101130.97;1773387;79;21067;-72
2022/01/26 05:32:43;;;;;;;31.47;14.13;;;;;;;-3.86;100.00;101131.67;1784549;79;21032;-72
2022/01/26 05:35:10;;;;;;;29.33;13.63;;;;;;;-3.83;100.00;101130.92;1780293;79;20984;-73
2022/01/26 05:37:38;;;;;;;38.00;14.60;;;;;;;-3.75;100.00;101133.59;1784425;79;21496;-72
2022/01/26 05:40:07;;;;;;;30.00;13.07;;;;;;;-3.76;100.00;101125.63;1775393;79;21047;-72
2022/01/26 05:42:36;;;;;;;20.57;8.90;;;;;;;-3.71;100.00;101124.92;1760100;79;21145;-73
2022/01/26 05:45:08;;;;;;;19.20;8.67;;;;;;;-3.81;100.00;101126.77;1780463;79;20988;-73
2022/01/26 05:47:36;;;;;;;19.37;9.73;;;;;;;-3.82;100.00;101124.64;1773739;80;21051;-72
2022/01/26 05:50:03;;;;;;;18.37;9.07;;;;;;;-3.83;100.00;101122.95;1782439;79;21012;-72
2022/01/26 05:52:30;;;;;;;20.13;9.90;;;;;;;-3.83;100.00;101129.66;1777033;79;21531;-72
2022/01/26 05:54:57;;;;;;;15.70;8.40;;;;;;;-3.78;100.00;101123.48;1764075;80;21093;-72
2022/01/26 05:57:24;;;;;;;15.77;7.37;;;;;;;-3.79;100.00;101124.27;1777418;79;21059;-72
2022/01/26 05:59:54;;;;;;;18.20;8.47;;;;;;;-3.82;100.00;101130.09;1773400;80;21542;-72
2022/01/26 06:02:20;;;;;;;15.33;7.97;;;;;;;-3.83;100.00;101125.89;1775280;80;21051;-73
2022/01/26 06:04:47;;;;;;;19.83;8.77;;;;;;;-3.80;100.00;101131.39;1784937;79;21036;-72
2022/01/26 06:07:14;;;;;;;16.43;8.17;;;;;;;-3.91;100.00;101131.98;1781370;80;21047;-73
2022/01/26 06:09:41;;;;;;;20.27;9.40;;;;;;;-3.86;100.00;101131.67;1785869;79;21237;-72
2022/01/26 06:12:09;;;;;;;25.03;11.97;;;;;;;-3.87;100.00;101135.02;1764688;80;21034;-72
2022/01/26 06:14:37;;;;;;;26.47;11.20;;;;;;;-3.89;100.00;101137.05;1777310;79;21044;-72
2022/01/26 06:17:04;;;;;;;28.53;12.53;;;;;;;-3.92;100.00;101134.03;1729832;82;21036;-73
2022/01/26 06:19:32;;;;;;;22.93;11.03;;;;;;;-3.86;100.00;101131.67;1718690;83;21511;-72
2022/01/26 06:21:58;;;;;;;22.90;10.03;;;;;;;-3.84;100.00;101132.56;1737530;82;21074;-72
2022/01/26 06:24:26;;;;;;;21.83;10.17;;;;;;;-3.82;100.00;101124.64;1711567;82;21063;-72
2022/01/26 06:26:53;;;;;;;19.97;8.83;;;;;;;-3.69;100.00;101123.67;1715105;83;21070;-72
2022/01/26 06:29:20;;;;;;;16.97;8.13;;;;;;;-3.73;100.00;101118.13;1736365;81;21559;-72
2022/01/26 06:31:47;;;;;;;17.60;8.80;;;;;;;-3.77;100.00;101119.75;1713607;81;21499;-72
2022/01/26 06:34:14;;;;;;;17.80;8.60;;;;;;;-3.65;100.00;101115.39;1709468;82;21587;-72
2022/01/26 06:36:43;;;;;;;17.17;8.63;;;;;;;-3.59;100.00;101119.72;1703460;83;21038;-72
2022/01/26 06:39:13;;;;;;;18.87;9.10;;;;;;;-3.68;100.00;101116.59;1711617;82;21028;-75
2022/01/26 06:41:50;;;;;;;17.43;7.87;;;;;;;-3.52;100.00;101124.10;1702719;82;21137;-75
2022/01/26 06:44:25;;;;;;;17.63;8.70;;;;;;;-3.49;100.00;101122.52;1708373;82;21036;-75
2022/01/26 06:51:51;;;;;;;16.17;8.30;;;;;;;-3.48;100.00;101125.88;1708126;82;21604;-72
2022/01/26 06:54:18;;;;;;;18.20;8.33;;;;;;;-3.48;100.00;101124.20;1718373;83;21039;-73
2022/01/26 06:56:45;;;;;;;15.70;7.90;;;;;;;-3.59;100.00;101127.27;1723918;83;21019;-73
2022/01/26 06:59:13;;;;;;;14.10;7.03;;;;;;;-3.46;100.00;101121.72;1725628;83;20987;-72
2022/01/26 07:01:41;;;;;;;17.60;8.20;;;;;;;-3.40;100.00;101121.02;1720254;83;21091;-73
2022/01/26 07:04:09;;;;;;;15.47;7.10;;;;;;;-3.17;100.00;101116.07;1718966;82;21583;-72
2022/01/26 07:06:36;;;;;;;16.53;7.73;;;;;;;-3.13;100.00;101115.31;1710830;82;21033;-73
2022/01/26 07:09:03;;;;;;;14.53;7.23;;;;;;;-3.33;100.00;101113.61;1685417;84;21069;-72
2022/01/26 07:11:30;;;;;;;15.30;7.83;;;;;;;-3.31;100.00;101109.47;1690637;84;21556;-72
2022/01/26 07:13:59;;;;;;;16.50;7.67;;;;;;;-3.15;100.00;101108.14;1728323;81;21583;-73
2022/01/26 07:19:50;;;;;;;17.53;7.87;;;;;;;-2.97;100.00;101098.02;1720340;82;21025;-73
2022/01/26 07:21:56;;;;;;;19.10;8.33;;;;;;;-2.78;100.00;101095.04;1720971;82;21153;-72
2022/01/26 07:24:23;;;;;;;16.97;7.50;;;;;;;-2.55;100.00;101094.25;1725334;82;21596;-73
2022/01/26 07:26:53;;;;;;;17.03;7.67;;;;;;;-2.50;100.00;101090.55;1725543;82;21706;-72
2022/01/26 07:29:22;;;;;;;17.40;7.70;;;;;;;-2.48;100.00;101097.30;1723367;82;21049;-72
2022/01/26 07:31:48;;;;;;;15.57;7.43;;;;;;;-2.44;100.00;101090.66;1723988;82;21046;-74
2022/01/26 07:34:16;;;;;;;16.47;7.50;;;;;;;-2.64;100.00;101092.38;1712874;82;21035;-76
2022/01/26 07:36:47;;;;;;;16.63;8.80;;;;;;;-2.37;100.00;101092.48;1720398;82;20985;-76
2022/01/26 07:39:18;;;;;;;20.90;8.27;;;;;;;-2.04;100.00;101088.84;1694528;83;21023;-76
2022/01/26 07:41:44;;;;;;;15.50;7.47;;;;;;;-1.83;100.00;101093.39;1725132;81;21172;-77
2022/01/26 07:44:11;;;;;;;16.67;7.63;;;;;;;-1.84;100.00;101091.70;1644395;85;21089;-75
2022/01/26 07:46:38;;;;;;;15.37;7.33;;;;;;;-2.00;100.00;101096.91;1672541;85;21121;-75
2022/01/26 07:49:05;;;;;;;17.13;8.07;;;;;;;-1.84;100.00;101098.02;1668301;85;21040;-76
2022/01/26 07:51:33;;;;;;;18.20;8.67;;;;;;;-1.61;100.00;101090.37;1664514;84;21128;-76
2022/01/26 07:54:00;;;;;;;19.53;8.80;;;;;;;-1.56;100.00;101089.20;1700426;83;21038;-75
2022/01/26 07:56:28;;;;;;;16.60;7.67;;;;;;;-1.82;100.00;101098.47;1666845;84;21543;-76
2022/01/26 07:58:57;;;;;;;22.70;9.90;;;;;;;-1.85;100.00;101098.82;1684466;83;21516;-77
2022/01/26 08:01:24;;;;;;;21.30;10.03;;;;;;;-1.55;100.00;101097.19;1711780;83;21030;-74
2022/01/26 08:03:51;;;;;;;23.73;10.15;;;;;;;-1.28;100.00;101092.09;1701580;83;21065;-75
2022/01/26 08:06:20;;;;;;;21.15;9.83;;;;;;;-1.42;100.00;101091.89;1707625;82;21076;-73
2022/01/26 08:08:48;;;;;;;22.85;10.93;;;;;;;-1.44;100.00;101099.86;1710254;83;21067;-73
2022/01/26 08:11:16;;;;;;;23.42;10.60;;;;;;;-1.26;100.00;101096.37;1682733;83;21036;-73
2022/01/26 08:13:43;;;;;;;27.30;11.45;;;;;;;-1.27;100.00;101111.07;1725059;80;21502;-73
2022/01/26 08:16:10;;;;;;;27.50;12.88;;;;;;;-1.40;100.00;101096.55;1740201;81;21002;-73
2022/01/26 08:18:38;;;;;;;28.27;12.40;;;;;;;-1.39;100.00;101094.91;1730683;82;21010;-72
2022/01/26 08:21:06;;;;;;;30.62;13.85;;;;;;;-1.24;100.00;101092.58;1744127;81;21085;-73
2022/01/26 08:23:36;;;;;;;31.23;14.43;;;;;;;-1.46;100.00;101088.89;1739494;80;21444;-72
2022/01/26 08:26:05;;;;;;;37.53;16.17;;;;;;;-1.48;100.00;101088.90;1714988;81;21353;-72
2022/01/26 08:28:37;;;;;;;38.00;16.20;;;;;;;-1.35;100.00;101087.39;1750610;81;21024;-72
2022/01/26 08:31:01;;;;;;;35.10;16.00;;;;;;;-1.18;100.00;101085.50;1666025;85;21073;-72
2022/01/26 08:33:28;;;;;;;35.78;16.25;;;;;;;-1.11;100.00;101085.61;1669034;83;21048;-72
2022/01/26 08:35:55;;;;;;;36.13;15.63;;;;;;;-1.11;100.00;101080.98;1659462;85;21107;-72
2022/01/26 08:38:23;;;;;;;36.00;16.73;;;;;;;-1.10;100.00;101081.39;1674526;83;21165;-72
2022/01/26 08:40:50;;;;;;;40.85;18.37;;;;;;;-1.20;100.00;101082.95;1678383;84;21036;-73
2022/01/26 08:43:17;;;;;;;38.65;16.97;;;;;;;-1.36;100.00;101091.14;1689464;84;21041;-72
2022/01/26 08:45:44;;;;;;;38.35;17.07;;;;;;;-1.50;100.00;101088.41;1743498;82;21009;-72
2022/01/26 08:48:12;;;;;;;38.42;17.70;;;;;;;-1.70;100.00;101089.41;1744595;81;21028;-72
2022/01/26 08:50:40;;;;;;;42.20;19.52;;;;;;;-1.72;100.00;101088.53;1747961;81;21068;-72
2022/01/26 08:53:07;;;;;;;41.75;18.07;;;;;;;-1.79;100.00;101092.61;1741552;81;21028;-72
2022/01/26 08:55:36;;;;;;;39.33;18.15;;;;;;;-1.62;100.00;101088.69;1743008;81;21048;-73
2022/01/26 08:58:05;;;;;;;36.75;16.25;;;;;;;-1.59;100.00;101087.87;1730250;82;21022;-72
2022/01/26 09:00:35;;;;;;;39.48;17.52;;;;;;;-1.88;100.00;101082.39;1675642;85;21568;-72
2022/01/26 09:03:02;;;;;;;36.05;16.80;;;;;;;-1.91;100.00;101077.27;1729763;81;21017;-72
2022/01/26 09:05:29;;;;;;;40.48;17.17;;;;;;;-1.66;100.00;101076.84;1748441;81;21051;-73
2022/01/26 09:07:58;;;;;;;37.45;17.67;;;;;;;-1.53;100.00;101077.86;1736479;81;21066;-72
2022/01/26 09:10:27;;;;;;;32.35;14.68;;;;;;;-1.50;100.00;101078.31;1672087;85;21076;-72
2022/01/26 09:12:56;;;;;;;31.57;13.53;;;;;;;-1.55;100.00;101078.26;1673554;84;21068;-72
2022/01/26 09:15:27;;;;;;;28.32;14.45;;;;;;;-1.77;100.00;101081.28;1689998;84;21087;-73
2022/01/26 09:17:51;;;;;;;32.77;15.07;;;;;;;-1.70;100.00;101073.00;1674370;85;21037;-72
2022/01/26 09:20:18;;;;;;;33.45;16.10;;;;;;;-1.73;100.00;101077.98;1739230;82;21079;-72
2022/01/26 09:22:45;;;;;;;33.58;15.28;;;;;;;-1.60;100.00;101079.88;1746531;82;21500;-72
2022/01/26 09:25:12;;;;;;;34.80;16.87;;;;;;;-1.85;100.00;101076.95;1744501;81;21029;-73
2022/01/26 09:27:39;;;;;;;35.57;16.70;;;;;;;-1.77;100.00;101078.77;1733215;81;20989;-72
2022/01/26 09:30:08;;;;;;;39.17;17.73;;;;;;;-1.72;100.00;101075.48;1741953;81;20989;-72
2022/01/26 09:32:36;;;;;;;37.00;18.07;;;;;;;-1.77;100.00;101074.55;1747069;81;20997;-73
2022/01/26 09:35:06;;;;;;;38.88;19.02;;;;;;;-1.73;100.00;101073.77;1745590;81;21032;-72
2022/01/26 09:37:34;;;;;;;41.65;18.85;;;;;;;-1.56;100.00;101076.58;1673328;85;21092;-73
2022/01/26 09:40:01;;;;;;;42.62;19.73;;;;;;;-1.66;100.00;101070.95;1705470;83;21103;-72
2022/01/26 09:42:29;;;;;;;50.90;21.97;;;;;;;-1.42;100.00;101066.25;1689307;83;21045;-72
2022/01/26 09:44:56;;;;;;;49.53;22.60;;;;;;;-1.33;100.00;101062.16;1675953;84;21513;-72
2022/01/26 09:47:25;;;;;;;47.08;21.93;;;;;;;-0.90;100.00;101056.38;1673884;84;21461;-72
2022/01/26 09:49:52;;;;;;;52.88;23.75;;;;;;;-0.90;100.00;101058.91;1684484;83;21024;-72
2022/01/26 09:52:34;;;;;;;61.13;24.45;;;;;;;-0.87;100.00;101055.16;1686763;83;21541;-72
2022/01/26 09:54:59;;;;;;;55.50;24.47;;;;;;;-0.96;100.00;101053.36;1689134;84;21082;-72
2022/01/26 09:57:30;;;;;;;43.98;22.32;;;;;;;-0.99;100.00;101051.20;1689316;84;21028;-73
2022/01/26 09:59:58;;;;;;;47.20;22.13;;;;;;;-1.03;100.00;101049.91;1689405;83;21562;-72
2022/01/26 10:02:30;;;;;;;52.38;24.50;;;;;;;-1.04;100.00;101053.26;1689081;83;21078;-72
2022/01/26 10:05:05;;;;;;;39.60;19.92;;;;;;;-1.13;100.00;101049.80;1689316;83;21038;-72
2022/01/26 10:15:44;;;;;;;31.75;15.20;;;;;;;-1.26;100.00;101031.09;1689299;83;21041;-73
2022/01/26 10:18:16;;;;;;;28.90;14.58;;;;;;;-1.13;100.00;101035.48;1688497;83;21026;-71
2022/01/26 10:20:51;;;;;;;29.30;14.38;;;;;;;-0.99;100.00;101033.52;1689157;83;21086;-71
2022/01/26 10:23:23;;;;;;;25.17;13.22;;;;;;;-0.96;100.00;101029.34;1689417;84;21035;-71
2022/01/26 10:26:12;;;;;;;27.52;13.72;;;;;;;-1.07;100.00;101024.60;1689394;84;21049;-71
2022/01/26 10:28:56;;;;;;;28.80;14.03;;;;;;;-0.90;100.00;101021.84;1689342;85;21092;-72
2022/01/26 10:31:30;;;;;;;28.35;14.35;;;;;;;-0.90;100.00;101023.09;1689453;83;21053;-72
2022/01/26 10:34:15;;;;;;;25.02;13.43;;;;;;;-0.86;100.00;101015.98;1689283;85;21041;-71
2022/01/26 10:36:54;;;;;;;24.10;11.33;;;;;;;-0.80;100.00;101008.89;1689401;83;21522;-71
2022/01/26 10:39:35;;;;;;;22.52;10.88;;;;;;;-0.88;100.00;101012.59;1688776;83;21069;-72
2022/01/26 10:42:06;;;;;;;21.00;11.10;;;;;;;-1.06;100.00;101010.70;1688912;83;21089;-73
2022/01/26 10:44:48;;;;;;;21.07;10.25;;;;;;;-0.94;100.00;101011.27;1689274;83;21049;-72
2022/01/26 10:47:10;;;;;;;21.75;10.68;;;;;;;-0.94;100.00;101007.47;1688052;83;21034;-72
2022/01/26 10:52:34;;;;;;;19.35;10.13;;;;;;;-0.62;100.00;101009.08;1691801;83;21005;-74
2022/01/26 10:54:50;;;;;;;19.67;9.78;;;;;;;-0.95;100.00;101003.66;1696135;83;21040;-72
2022/01/26 10:57:18;;;;;;;19.35;9.45;;;;;;;-1.14;100.00;101007.23;1699383;83;20996;-74
2022/01/26 10:59:48;;;;;;;20.10;9.95;;;;;;;-1.31;100.00;101006.20;1699371;83;21005;-74
2022/01/26 11:02:40;;;;;;;18.35;9.20;;;;;;;-1.23;100.00;101008.41;1697926;83;21023;-75
2022/01/26 11:04:46;;;;;;;17.62;9.15;;;;;;;-1.43;100.00;101006.47;1690586;84;21581;-72
2022/01/26 11:07:16;;;;;;;17.82;9.53;;;;;;;-1.21;100.00;101008.01;1698381;84;21090;-73
2022/01/26 11:09:49;;;;;;;23.22;11.25;;;;;;;-1.05;100.00;101006.09;1698473;83;21086;-73
2022/01/26 11:12:27;;;;;;;20.60;10.90;;;;;;;-1.01;100.00;101006.98;1710445;83;21019;-71
2022/01/26 11:15:16;;;;;;;24.43;12.20;;;;;;;-1.08;100.00;101004.78;1720616;82;21059;-72
2022/01/26 11:17:46;;;;;;;21.07;10.15;;;;;;;-1.18;100.00;101002.14;1702378;83;21008;-72
2022/01/26 11:20:29;;;;;;;17.23;8.85;;;;;;;-1.27;100.00;100994.88;1727545;82;21575;-72
2022/01/26 11:22:55;;;;;;;16.15;8.53;;;;;;;-1.34;100.00;100996.05;1696039;82;21043;-72
2022/01/26 11:25:26;;;;;;;16.17;8.18;;;;;;;-1.51;100.00;100989.53;1713140;83;21001;-72
2022/01/26 11:27:54;;;;;;;15.53;7.75;;;;;;;-1.35;100.00;100993.10;1715284;83;21051;-73
2022/01/26 11:30:32;;;;;;;17.20;8.10;;;;;;;-1.38;100.00;100994.31;1720397;82;21090;-74
2022/01/26 11:33:06;;;;;;;17.87;9.58;;;;;;;-1.43;100.00;100989.21;1677200;84;21111;-75
2022/01/26 11:35:35;;;;;;;;;;;;;;;-1.43;100.00;100983.73;1684963;83;21091;-74
2022/01/26 11:46:37;;;;;;;17.20;8.50;;;;;;;-1.30;100.00;100982.63;1680817;85;21016;-75
2022/01/26 11:49:09;;;;;;;23.15;10.78;;;;;;;-1.44;100.00;100972.34;1725786;82;21075;-75
2022/01/26 11:51:51;;;;;;;20.27;10.68;;;;;;;-1.22;100.00;100975.59;1733277;82;21561;-75
2022/01/26 11:54:22;;;;;;;18.32;9.58;;;;;;;-1.30;100.00;100976.31;1728165;82;21158;-76
2022/01/26 11:57:08;;;;;;;21.50;10.48;;;;;;;-1.29;100.00;100977.59;1667490;83;21020;-75
2022/01/26 11:59:38;;;;;;;19.87;10.03;;;;;;;-1.36;100.00;100978.77;1756020;80;21036;-75
2022/01/26 12:02:18;;;;;;;21.93;10.58;;;;;;;-1.50;100.00;100971.88;1736926;81;21030;-76
2022/01/26 12:04:36;;;;;;;18.85;9.65;;;;;;;-1.37;100.00;100973.30;1717725;82;21024;-75
2022/01/26 12:07:20;;;;;;;19.85;9.08;;;;;;;-1.49;100.00;100973.56;1707207;83;21058;-75
2022/01/26 12:09:41;;;;;;;18.98;9.23;;;;;;;-1.56;100.00;100976.85;1742979;81;21060;-75
2022/01/26 12:12:17;;;;;;;18.60;9.98;;;;;;;-1.77;100.00;100979.91;1753082;81;21000;-75
2022/01/26 12:14:46;;;;;;;22.75;10.23;;;;;;;-1.97;100.00;100975.00;1751783;81;21009;-75
2022/01/26 12:17:28;;;;;;;21.12;9.40;;;;;;;-2.03;100.00;100981.67;1707402;82;21080;-75
2022/01/26 12:34:42;;;;;;;26.50;12.83;;;;;;;-2.17;100.00;100974.69;1753120;80;21019;-75
2022/01/26 12:37:33;;;;;;;22.30;11.50;;;;;;;-2.06;100.00;100970.67;1740741;80;20997;-76
2022/01/26 12:45:25;;;;;;;29.70;13.20;;;;;;;-1.80;100.00;100976.10;1744531;81;21075;-76
2022/01/26 12:47:56;;;;;;;26.17;12.58;;;;;;;-1.82;100.00;100973.97;1746053;82;21077;-75
2022/01/26 12:50:25;;;;;;;19.53;10.57;;;;;;;-1.77;100.00;100981.59;1748708;81;21075;-76
2022/01/26 12:52:56;;;;;;;28.75;13.13;;;;;;;-1.93;100.00;100973.80;1749561;81;21524;-75
2022/01/26 12:55:31;;;;;;;28.87;13.67;;;;;;;-2.00;100.00;100979.59;1741217;81;21022;-76
2022/01/26 12:57:59;;;;;;;26.27;13.33;;;;;;;-2.00;100.00;100982.12;1740891;81;21030;-76
2022/01/26 13:00:42;;;;;;;32.77;15.93;;;;;;;-2.15;100.00;100979.34;1738032;82;21093;-76
2022/01/26 13:03:15;;;;;;;28.47;15.03;;;;;;;-2.19;100.00;100974.66;1737704;81;21045;-75
2022/01/26 13:05:43;;;;;;;25.85;13.13;;;;;;;-2.11;100.00;100975.66;1747840;81;21559;-75
2022/01/26 13:08:10;;;;;;;22.97;11.37;;;;;;;-2.09;100.00;100979.44;1752803;81;21496;-76
2022/01/26 13:10:40;;;;;;;20.47;10.63;;;;;;;-2.29;100.00;100976.22;1737916;81;21119;-76
2022/01/26 13:13:17;;;;;;;23.30;11.97;;;;;;;-2.36;100.00;100979.45;1738572;81;21529;-75
2022/01/26 13:16:09;;;;;;;25.13;12.37;;;;;;;-2.37;100.00;100985.72;1739064;82;21467;-76
2022/01/26 13:18:49;;;;;;;24.93;12.37;;;;;;;-2.34;100.00;100986.63;1744826;81;21127;-76
2022/01/26 13:21:18;;;;;;;26.53;12.33;;;;;;;-2.23;100.00;100988.05;1750500;81;21576;-76
2022/01/26 13:26:21;;;;;;;23.67;11.73;;;;;;;-2.45;100.00;100989.39;1693587;80;21038;-75